Time;durP1;ratioP1;P1;durP2;ratioP2;P2;SDS_P1;SDS_P2;PMS_P1;PMS_P2;Temp;Humidity;BMP_temperature;BMP_pressure;BME280_temperature;BME280_humidity;BME280_pressure;Samples;Min_cycle;Max_cycle;Signal;HPM_P1;HPM_P2
2022/11/02 00:00:45;;;;;;;12.63;1.25;;;;;;;5.88;100.00;99614.22;4865071;29;20116;-89
2022/11/02 00:03:13;;;;;;;10.85;1.30;;;;;;;5.90;100.00;99614.91;4855333;29;20557;-88
2022/11/02 00:05:41;;;;;;;11.05;1.25;;;;;;;5.90;100.00;99615.75;4851248;29;20037;-87
2022/11/02 00:08:09;;;;;;;6.82;1.05;;;;;;;5.89;100.00;99615.91;4865040;29;20048;-89
2022/11/02 00:10:37;;;;;;;7.07;1.50;;;;;;;5.89;100.00;99615.91;4866252;29;20063;-88
2022/11/02 00:13:06;;;;;;;7.28;1.00;;;;;;;5.85;100.00;99610.06;4882973;29;20064;-89
2022/11/02 00:15:37;;;;;;;8.13;1.38;;;;;;;5.85;100.00;99623.19;4867689;29;20491;-89
2022/11/02 00:18:14;;;;;;;8.57;1.30;;;;;;;5.81;100.00;99614.75;4883434;29;20043;-89
2022/11/02 00:20:45;;;;;;;8.23;1.27;;;;;;;5.78;100.00;99619.47;4860160;29;20115;-89
2022/11/02 00:23:14;;;;;;;4.97;1.23;;;;;;;5.81;100.00;99617.38;4863410;29;20475;-89
2022/11/02 00:25:46;;;;;;;5.35;0.85;;;;;;;5.85;100.00;99631.06;4862782;29;20041;-90
2022/11/02 00:28:14;;;;;;;7.68;0.73;;;;;;;5.87;100.00;99633.53;4891322;29;20040;-88
2022/11/02 00:30:43;;;;;;;7.60;1.00;;;;;;;5.90;100.00;99644.59;4877088;29;20041;-88
2022/11/02 00:33:11;;;;;;;4.43;1.02;;;;;;;5.85;100.00;99646.78;4856288;29;20044;-89
2022/11/02 00:35:40;;;;;;;10.52;1.63;;;;;;;5.88;100.00;99658.81;4867441;29;20105;-89
2022/11/02 00:38:08;;;;;;;7.90;1.52;;;;;;;5.86;100.00;99658.13;4863041;29;20123;-92
2022/11/02 00:40:36;;;;;;;6.60;1.30;;;;;;;5.86;100.00;99652.88;4862755;29;20029;-92
2022/11/02 00:43:05;;;;;;;7.68;0.85;;;;;;;5.83;100.00;99649.56;4873552;29;21012;-89
2022/11/02 00:45:35;;;;;;;3.55;0.80;;;;;;;5.82;100.00;99645.28;4859115;29;20124;-89
2022/11/02 00:48:06;;;;;;;2.97;0.75;;;;;;;5.83;100.00;99648.72;4862234;29;20037;-88
2022/11/02 00:50:35;;;;;;;3.60;0.77;;;;;;;5.82;100.00;99650.53;4861173;29;20037;-89
2022/11/02 00:53:04;;;;;;;5.25;0.95;;;;;;;5.86;100.00;99658.94;4861444;29;20037;-92
2022/11/02 00:55:32;;;;;;;11.68;1.25;;;;;;;5.83;100.00;99649.56;4879580;29;20056;-91
2022/11/02 00:58:04;;;;;;;8.05;0.90;;;;;;;5.86;100.00;99645.81;4858204;29;20041;-85
2022/11/02 01:00:31;;;;;;;3.70;0.98;;;;;;;5.84;100.00;99645.97;4865753;29;20113;-91
2022/11/02 01:03:00;;;;;;;11.88;1.02;;;;;;;5.86;100.00;99639.78;4841189;29;20052;-88
2022/11/02 01:05:31;;;;;;;3.30;1.00;;;;;;;5.86;100.00;99645.00;4852062;29;20073;-90
2022/11/02 01:08:04;;;;;;;4.82;0.82;;;;;;;5.86;100.00;99640.56;4859199;29;20040;-89
2022/11/02 01:10:34;;;;;;;6.45;1.50;;;;;;;5.86;100.00;99640.56;4874944;29;20382;-89
2022/11/02 01:13:04;;;;;;;3.20;1.20;;;;;;;5.83;100.00;99631.19;4866738;29;20537;-88
2022/11/02 01:15:36;;;;;;;8.02;0.70;;;;;;;5.73;100.00;99630.34;4868223;29;20506;-88
2022/11/02 01:18:06;;;;;;;6.00;0.93;;;;;;;5.66;100.00;99621.34;4880054;29;20080;-93
2022/11/02 01:20:34;;;;;;;5.43;0.80;;;;;;;5.59;100.00;99621.88;4893031;29;20109;-93
2022/11/02 01:23:04;;;;;;;2.75;0.75;;;;;;;5.58;100.00;99616.75;4881514;29;20040;-91
2022/11/02 01:25:34;;;;;;;4.93;0.85;;;;;;;5.59;100.00;99615.78;4894583;29;20064;-92
2022/11/02 01:28:04;;;;;;;5.40;1.00;;;;;;;5.56;100.00;99619.50;4859752;29;20128;-89
2022/11/02 01:30:34;;;;;;;5.78;0.80;;;;;;;5.52;100.00;99633.84;4875771;29;20041;-89
2022/11/02 01:33:05;;;;;;;8.52;0.50;;;;;;;5.54;100.00;99641.59;4880606;29;20116;-92
2022/11/02 01:35:37;;;;;;;7.90;0.68;;;;;;;5.54;100.00;99644.22;4886591;29;20089;-92
2022/11/02 01:38:05;;;;;;;7.38;1.00;;;;;;;5.55;100.00;99638.84;4888676;29;20040;-89
2022/11/02 01:40:39;;;;;;;5.88;1.17;;;;;;;5.56;100.00;99631.78;4886752;29;20101;-88
2022/11/02 01:43:33;;;;;;;9.63;1.05;;;;;;;5.56;100.00;99619.50;4860710;29;20029;-89
2022/11/02 01:46:12;;;;;;;2.67;0.60;;;;;;;5.55;100.00;99615.25;4877365;29;20420;-91
2022/11/02 01:48:50;;;;;;;2.05;0.55;;;;;;;5.53;100.00;99621.56;4857734;29;20379;-90
2022/11/02 01:51:58;;;;;;;5.10;0.98;;;;;;;5.52;100.00;99610.25;4877440;29;20041;-91
2022/11/02 01:54:36;;;;;;;5.00;0.93;;;;;;;5.49;100.00;99617.56;4875357;29;20117;-92
2022/11/02 01:57:10;;;;;;;3.88;0.60;;;;;;;5.54;100.00;99612.75;4866139;29;20501;-91
2022/11/02 02:00:01;;;;;;;7.10;0.80;;;;;;;5.56;100.00;99619.50;4865065;29;20120;-91
2022/11/02 02:02:33;;;;;;;4.00;0.60;;;;;;;5.58;100.00;99614.97;4871126;29;20049;-91
2022/11/02 02:05:08;;;;;;;5.47;0.80;;;;;;;5.60;100.00;99609.59;4878913;29;20033;-91
2022/11/02 02:07:39;;;;;;;3.90;0.60;;;;;;;5.58;100.00;99608.91;4846435;29;20479;-91
2022/11/02 02:10:08;;;;;;;5.88;0.85;;;;;;;5.53;100.00;99598.81;4873790;29;20101;-91
2022/11/02 02:12:41;;;;;;;4.43;0.52;;;;;;;5.54;100.00;99608.31;4855581;29;20119;-92
2022/11/02 02:15:12;;;;;;;4.13;0.68;;;;;;;5.55;100.00;99575.09;4894701;29;20418;-91
2022/11/02 02:18:03;;;;;;;6.40;0.75;;;;;;;5.57;100.00;99581.84;4864320;29;20036;-89
2022/11/02 02:21:04;;;;;;;1.73;0.50;;;;;;;5.54;100.00;99569.00;4863524;29;20478;-89
2022/11/02 02:23:58;;;;;;;6.60;0.75;;;;;;;5.53;100.00;99574.38;4864892;29;20033;-92
2022/11/02 02:26:42;;;;;;;8.32;1.10;;;;;;;5.50;100.00;99564.16;4854550;29;20045;-89
2022/11/02 02:29:23;;;;;;;5.45;0.80;;;;;;;5.50;100.00;99570.25;4870412;29;20561;-91
2022/11/02 02:31:59;;;;;;;13.32;1.02;;;;;;;5.45;100.00;99572.41;4847634;29;20037;-90
2022/11/02 02:34:36;;;;;;;2.10;0.60;;;;;;;5.45;100.00;99572.41;4864919;29;20088;-88
2022/11/02 02:37:13;;;;;;;4.40;0.50;;;;;;;5.43;100.00;99572.56;4849486;29;20043;-91
2022/11/02 02:39:50;;;;;;;4.07;0.90;;;;;;;5.44;100.00;99576.84;4869297;29;20041;-92
2022/11/02 02:42:33;;;;;;;6.75;1.00;;;;;;;5.42;100.00;99583.16;4865011;29;20045;-93
2022/11/02 02:45:05;;;;;;;4.95;1.25;;;;;;;5.42;100.00;99578.75;4864320;29;20044;-91
2022/11/02 02:47:43;;;;;;;2.10;0.50;;;;;;;5.42;100.00;99567.44;4848960;29;20460;-89
2022/11/02 02:50:21;;;;;;;6.68;0.80;;;;;;;5.44;100.00;99557.66;4847848;29;20029;-88
2022/11/02 02:52:53;;;;;;;7.05;0.68;;;;;;;5.48;100.00;99548.56;4879803;29;20135;-91
2022/11/02 02:55:30;;;;;;;7.82;0.82;;;;;;;5.53;100.00;99551.63;4848865;29;20063;-91
2022/11/02 02:58:02;;;;;;;6.18;0.82;;;;;;;5.58;100.00;99556.47;4863473;29;20041;-89
2022/11/02 03:00:33;;;;;;;9.35;1.25;;;;;;;5.59;100.00;99537.97;4860979;29;20478;-88
2022/11/02 03:03:04;;;;;;;12.05;1.23;;;;;;;5.64;100.00;99537.56;4863964;29;20040;-93
2022/11/02 03:05:36;;;;;;;9.30;1.00;;;;;;;5.66;100.00;99522.53;4864742;29;20391;-93
2022/11/02 03:08:11;;;;;;;5.10;0.50;;;;;;;5.72;100.00;99510.66;4849529;29;20149;-90
2022/11/02 03:11:13;;;;;;;7.47;0.80;;;;;;;5.78;100.00;99504.88;4863299;29;20120;-90
2022/11/02 03:14:25;;;;;;;6.28;1.10;;;;;;;5.83;100.00;99500.06;4829778;29;20045;-94
2022/11/02 03:17:06;;;;;;;7.18;0.82;;;;;;;5.92;100.00;99500.22;4843544;29;20135;-91
2022/11/02 03:19:37;;;;;;;6.65;1.08;;;;;;;5.98;100.00;99494.41;4845633;29;20048;-88
2022/11/02 03:22:46;;;;;;;2.58;0.60;;;;;;;6.04;100.00;99482.53;4860944;29;20038;-90
2022/11/02 03:25:29;;;;;;;5.63;1.25;;;;;;;6.13;100.00;99486.16;4834650;29;20037;-91
2022/11/02 03:28:04;;;;;;;3.97;0.73;;;;;;;6.23;100.00;99480.91;4845347;29;20482;-89
2022/11/02 03:30:42;;;;;;;6.20;1.10;;;;;;;6.29;100.00;99477.72;4856170;29;20046;-90
2022/11/02 03:34:06;;;;;;;6.63;0.85;;;;;;;6.38;100.00;99487.38;4855971;29;20132;-92
2022/11/02 03:36:59;;;;;;;6.50;1.13;;;;;;;6.49;100.00;99477.69;4859766;29;20086;-92
2022/11/02 03:39:47;;;;;;;9.45;0.98;;;;;;;6.56;100.00;99474.34;4874768;29;20082;-93
2022/11/02 03:42:21;;;;;;;3.65;0.52;;;;;;;6.63;100.00;99479.00;4860669;29;20048;-91
2022/11/02 03:45:02;;;;;;;6.30;1.33;;;;;;;6.56;100.00;99466.47;4843821;29;20072;-90
2022/11/02 03:47:34;;;;;;;7.22;0.82;;;;;;;6.54;100.00;99467.59;4838248;29;20042;-91
2022/11/02 03:50:08;;;;;;;5.38;0.85;;;;;;;6.50;100.00;99453.09;4861213;29;20041;-91
2022/11/02 03:52:42;;;;;;;7.20;1.23;;;;;;;6.50;100.00;99450.47;4874672;29;20059;-91
2022/11/02 03:55:16;;;;;;;6.00;2.17;;;;;;;6.52;100.00;99451.97;4858609;29;20038;-89
2022/11/02 03:57:48;;;;;;;8.38;1.05;;;;;;;6.52;100.00;99449.34;4841883;29;20050;-93
2022/11/02 04:00:25;;;;;;;3.55;0.70;;;;;;;6.55;100.00;99441.19;4859642;29;20041;-93
2022/11/02 04:03:03;;;;;;;10.20;1.25;;;;;;;6.58;100.00;99432.19;4843263;29;20124;-90
2022/11/02 04:05:35;;;;;;;6.97;1.15;;;;;;;6.60;100.00;99435.50;4858402;29;20124;-90
2022/11/02 04:08:28;;;;;;;6.40;1.08;;;;;;;6.63;100.00;99423.88;4844723;29;20041;-91
2022/11/02 04:16:43;;;;;;;8.75;1.50;;;;;;;6.76;100.00;99424.38;4894627;29;20726;-90
2022/11/02 04:19:28;;;;;;;7.55;1.25;;;;;;;6.81;100.00;99408.19;4879773;29;20065;-91
2022/11/02 04:27:47;;;;;;;12.15;1.00;;;;;;;6.89;100.00;99407.47;4857461;29;20037;-94
2022/11/02 04:30:20;;;;;;;6.47;1.27;;;;;;;6.94;100.00;99408.66;4862120;29;20044;-93
2022/11/02 04:35:47;;;;;;;4.97;1.00;;;;;;;6.91;100.00;99395.03;4883294;29;20402;-91
2022/11/02 04:43:54;;;;;;;4.45;1.00;;;;;;;6.93;100.00;99390.41;4857359;29;20069;-93
2022/11/02 04:46:25;;;;;;;7.30;1.13;;;;;;;6.98;100.00;99392.59;4875995;29;20048;-90
2022/11/02 04:48:52;;;;;;;6.53;1.10;;;;;;;6.97;100.00;99396.22;4843464;29;21015;-91
2022/11/02 04:51:21;;;;;;;10.55;1.40;;;;;;;6.97;100.00;99389.19;4858053;29;20072;-90
2022/11/02 04:53:52;;;;;;;15.63;1.35;;;;;;;6.98;100.00;99385.56;4860099;29;20029;-91
2022/11/02 04:56:22;;;;;;;5.80;0.90;;;;;;;6.98;100.00;99368.97;4861300;29;20051;-91
2022/11/02 04:58:54;;;;;;;7.15;1.05;;;;;;;7.02;100.00;99365.09;4844758;29;20064;-90
2022/11/02 05:01:25;;;;;;;8.43;1.25;;;;;;;7.04;100.00;99353.44;4888414;29;20491;-92
2022/11/02 05:03:54;;;;;;;6.47;1.08;;;;;;;7.08;100.00;99346.09;4892419;29;20057;-92
2022/11/02 05:06:24;;;;;;;8.82;0.98;;;;;;;7.06;100.00;99327.84;4846904;29;20096;-91
2022/11/02 05:08:57;;;;;;;11.00;1.40;;;;;;;7.06;100.00;99316.50;4875251;29;20048;-91
2022/11/02 05:11:26;;;;;;;13.57;1.17;;;;;;;7.07;100.00;99311.09;4836528;29;20454;-91
2022/11/02 05:13:54;;;;;;;9.63;1.67;;;;;;;7.09;100.00;99307.53;4872536;29;20036;-90
2022/11/02 05:16:23;;;;;;;12.13;1.08;;;;;;;7.16;100.00;99287.53;4859965;29;20076;-92
2022/11/02 05:18:54;;;;;;;7.88;1.40;;;;;;;7.26;100.00;99296.16;4852857;29;20036;-92
2022/11/02 05:21:23;;;;;;;8.85;1.15;;;;;;;7.39;100.00;99277.38;4834011;29;20045;-91
2022/11/02 05:23:56;;;;;;;10.85;1.40;;;;;;;7.59;100.00;99292.13;4861762;29;20037;-91
2022/11/02 05:26:26;;;;;;;7.75;0.82;;;;;;;7.72;100.00;99281.22;4851381;29;20044;-92
2022/11/02 05:28:56;;;;;;;4.93;1.00;;;;;;;7.81;100.00;99265.34;4848167;29;20042;-92
2022/11/02 05:31:24;;;;;;;5.22;0.95;;;;;;;7.89;100.00;99264.56;4862590;29;20045;-90
2022/11/02 05:33:52;;;;;;;8.50;0.90;;;;;;;7.96;100.00;99237.63;4876798;29;20502;-90
2022/11/02 05:36:21;;;;;;;4.32;1.17;;;;;;;8.02;100.00;99239.63;4865928;29;20376;-91
2022/11/02 05:38:53;;;;;;;9.77;1.17;;;;;;;8.08;100.00;99241.63;4874943;29;20399;-94
2022/11/02 05:41:22;;;;;;;5.93;0.70;;;;;;;8.15;100.00;99244.44;4862517;29;20068;-91
2022/11/02 05:43:51;;;;;;;7.20;1.17;;;;;;;8.21;100.00;99240.34;4844582;29;20033;-91
2022/11/02 05:46:20;;;;;;;10.32;1.98;;;;;;;8.25;100.00;99221.44;4883803;29;20104;-93
2022/11/02 05:48:48;;;;;;;7.55;1.65;;;;;;;8.32;100.00;99216.38;4861392;29;20053;-93
2022/11/02 05:51:18;;;;;;;12.07;2.22;;;;;;;8.38;100.00;99204.34;4888898;29;20048;-91
2022/11/02 05:53:48;;;;;;;14.05;2.58;;;;;;;8.45;100.00;99192.22;4893439;29;20097;-93
2022/11/02 05:56:18;;;;;;;10.88;1.25;;;;;;;8.48;100.00;99170.81;4850638;29;20376;-90
2022/11/02 05:58:46;;;;;;;17.85;2.33;;;;;;;8.54;100.00;99169.34;4840382;29;20045;-90
2022/11/02 06:01:14;;;;;;;18.45;2.30;;;;;;;8.59;100.00;99147.81;4879420;29;20495;-90
2022/11/02 06:03:43;;;;;;;20.42;2.42;;;;;;;8.67;100.00;99139.91;4847161;29;20116;-90
2022/11/02 06:06:11;;;;;;;16.67;2.38;;;;;;;8.70;100.00;99136.94;4891060;29;20081;-90
2022/11/02 06:08:39;;;;;;;22.17;2.30;;;;;;;8.76;100.00;99119.69;4883180;29;20039;-89
2022/11/02 06:11:12;;;;;;;20.50;2.53;;;;;;;8.81;100.00;99112.91;4854799;29;20133;-91
2022/11/02 06:13:41;;;;;;;14.85;2.60;;;;;;;8.87;100.00;99110.63;4864950;29;20094;-90
2022/11/02 06:16:11;;;;;;;16.05;3.28;;;;;;;8.93;100.00;99100.22;4862935;29;20045;-92
2022/11/02 06:18:41;;;;;;;16.20;2.60;;;;;;;8.95;100.00;99093.97;4825552;29;20036;-92
2022/11/02 06:21:11;;;;;;;20.52;3.20;;;;;;;8.88;100.00;99092.00;4878486;29;20128;-92
2022/11/02 06:23:42;;;;;;;18.52;2.33;;;;;;;8.83;100.00;99077.66;4880037;29;20041;-91
2022/11/02 06:26:12;;;;;;;26.30;3.05;;;;;;;8.81;100.00;99070.75;4880213;29;20044;-92
2022/11/02 06:28:42;;;;;;;20.52;2.83;;;;;;;8.80;100.00;99058.59;4850495;29;20052;-94
2022/11/02 06:31:16;;;;;;;18.17;3.13;;;;;;;8.84;100.00;99063.53;4881820;29;20040;-91
2022/11/02 06:33:46;;;;;;;14.73;3.55;;;;;;;8.89;100.00;99050.63;4878787;29;20108;-90
2022/11/02 06:36:15;;;;;;;17.33;2.60;;;;;;;8.93;100.00;99029.06;4848833;29;20037;-91
2022/11/02 06:38:45;;;;;;;17.20;2.35;;;;;;;9.00;100.00;99041.59;4870766;29;20490;-91
2022/11/02 06:41:12;;;;;;;20.42;3.38;;;;;;;9.04;100.00;99025.25;4861368;29;20047;-89
2022/11/02 06:43:43;;;;;;;15.95;2.85;;;;;;;9.10;100.00;99020.28;4866070;29;20033;-90
2022/11/02 06:46:13;;;;;;;22.63;3.92;;;;;;;9.20;100.00;99004.28;4847397;29;20037;-89
2022/11/02 06:48:43;;;;;;;21.75;4.85;;;;;;;9.29;100.00;98995.31;4894664;29;20398;-89
2022/11/02 06:51:13;;;;;;;17.08;2.80;;;;;;;9.42;100.00;99000.06;4863775;29;20132;-92
2022/11/02 06:53:41;;;;;;;24.67;4.25;;;;;;;9.48;100.00;98999.34;4848707;29;20112;-89
2022/11/02 06:56:12;;;;;;;21.25;2.80;;;;;;;9.42;100.00;98995.59;4860922;29;20491;-91
2022/11/02 06:58:42;;;;;;;25.08;3.53;;;;;;;9.38;100.00;98996.13;4889384;29;20039;-90
2022/11/02 07:01:14;;;;;;;20.98;3.22;;;;;;;9.35;100.00;98986.72;4894972;29;20565;-89
2022/11/02 07:03:43;;;;;;;21.80;3.60;;;;;;;9.32;100.00;98973.88;4891736;29;20064;-91
2022/11/02 07:06:13;;;;;;;21.67;3.33;;;;;;;9.28;100.00;98959.41;4863274;29;20041;-91
2022/11/02 07:08:43;;;;;;;27.63;3.28;;;;;;;9.27;100.00;98952.50;4853956;29;20041;-91
2022/11/02 07:11:15;;;;;;;19.60;3.20;;;;;;;9.26;100.00;98949.03;4877952;29;20037;-91
2022/11/02 07:13:44;;;;;;;22.02;2.85;;;;;;;9.22;100.00;98931.91;4847915;29;20395;-92
2022/11/02 07:16:14;;;;;;;24.50;3.53;;;;;;;9.28;100.00;98933.06;4877817;29;20052;-92
2022/11/02 07:18:43;;;;;;;26.70;3.20;;;;;;;9.39;100.00;98922.13;4848476;29;20391;-92
2022/11/02 07:21:11;;;;;;;20.15;3.00;;;;;;;9.41;100.00;98919.31;4881395;29;20116;-92
2022/11/02 07:23:40;;;;;;;19.10;2.53;;;;;;;9.52;100.00;98897.78;4863154;29;20041;-92
2022/11/02 07:26:08;;;;;;;18.35;2.67;;;;;;;9.61;100.00;98909.09;4862890;29;20119;-91
2022/11/02 07:28:37;;;;;;;20.85;2.97;;;;;;;9.71;100.00;98898.31;4848687;29;20051;-91
2022/11/02 07:31:05;;;;;;;17.88;3.17;;;;;;;9.73;100.00;98892.88;4863277;29;20049;-91
2022/11/02 07:33:34;;;;;;;25.00;3.30;;;;;;;9.76;100.00;98876.69;4863992;29;20064;-91
2022/11/02 07:36:05;;;;;;;20.02;3.55;;;;;;;9.72;100.00;98868.28;4862455;29;20123;-91
2022/11/02 07:38:34;;;;;;;18.23;3.13;;;;;;;9.71;100.00;98850.00;4877941;29;20192;-91
2022/11/02 07:41:03;;;;;;;29.63;3.72;;;;;;;9.75;100.00;98851.28;4862567;29;20033;-91
2022/11/02 07:43:31;;;;;;;28.00;4.25;;;;;;;9.69;100.00;98834.34;4878611;29;20483;-91
2022/11/02 07:46:04;;;;;;;23.15;3.38;;;;;;;9.74;100.00;98828.53;4892004;29;20045;-91
2022/11/02 07:48:34;;;;;;;21.70;3.08;;;;;;;9.75;100.00;98831.00;4879235;29;20486;-91
2022/11/02 07:51:01;;;;;;;17.63;2.83;;;;;;;9.81;100.00;98840.00;4861763;29;20553;-91
2022/11/02 07:53:29;;;;;;;20.30;2.50;;;;;;;9.85;100.00;98796.44;4861139;29;20040;-91
2022/11/02 07:55:56;;;;;;;12.77;2.85;;;;;;;9.85;100.00;98807.00;4861550;29;20063;-91
2022/11/02 07:58:26;;;;;;;17.75;2.55;;;;;;;9.91;100.00;98773.78;4878239;29;20044;-91
2022/11/02 08:01:01;;;;;;;14.05;1.92;;;;;;;9.96;100.00;98781.97;4892685;29;20514;-90
2022/11/02 08:03:31;;;;;;;19.95;2.63;;;;;;;10.00;100.00;98775.31;4863127;29;20041;-91
2022/11/02 08:06:02;;;;;;;17.20;2.45;;;;;;;10.04;100.00;98750.22;4869389;29;20052;-92
2022/11/02 08:08:32;;;;;;;15.95;2.47;;;;;;;10.11;100.00;98752.94;4862789;29;20079;-90
2022/11/02 08:11:09;;;;;;;22.80;3.47;;;;;;;10.17;100.00;98740.81;4863495;29;20033;-92
2022/11/02 08:13:39;;;;;;;21.55;3.50;;;;;;;10.22;100.00;98730.53;4863990;29;20566;-91
2022/11/02 08:16:07;;;;;;;15.60;2.95;;;;;;;10.28;100.00;98737.72;4862174;29;20092;-91
2022/11/02 08:18:35;;;;;;;14.10;2.60;;;;;;;10.27;100.00;98706.22;4865297;29;20041;-92
2022/11/02 08:21:04;;;;;;;17.05;3.28;;;;;;;10.33;100.00;98708.13;4895639;29;20056;-91
2022/11/02 08:23:32;;;;;;;19.85;3.17;;;;;;;10.34;100.00;98688.63;4863045;29;20036;-92
2022/11/02 08:26:00;;;;;;;20.58;3.78;;;;;;;10.33;100.00;98689.63;4886495;29;20120;-92
2022/11/02 08:28:38;;;;;;;18.48;3.70;;;;;;;10.38;100.00;98686.44;4875610;29;20128;-91
2022/11/02 08:31:14;;;;;;;25.75;3.45;;;;;;;10.39;100.00;98685.41;4875664;29;20116;-93
2022/11/02 08:33:46;;;;;;;20.52;4.95;;;;;;;10.43;100.00;98671.66;4862037;29;20041;-92
2022/11/02 08:36:15;;;;;;;26.40;3.70;;;;;;;10.48;100.00;98665.81;4902634;29;20033;-93
2022/11/02 08:38:44;;;;;;;17.50;3.70;;;;;;;10.51;100.00;98662.00;4877153;29;20070;-91
2022/11/02 08:41:13;;;;;;;24.27;4.43;;;;;;;10.48;100.00;98644.69;4862763;29;20517;-92
2022/11/02 08:43:43;;;;;;;23.10;4.45;;;;;;;10.52;100.00;98651.25;4861958;29;20089;-92
2022/11/02 08:46:13;;;;;;;24.00;3.92;;;;;;;10.57;100.00;98603.13;4847146;29;20033;-91
2022/11/02 08:48:41;;;;;;;27.95;4.25;;;;;;;10.57;100.00;98623.44;4848285;29;20033;-91
2022/11/02 08:51:09;;;;;;;17.60;4.32;;;;;;;10.52;100.00;98619.56;4876843;29;20043;-91
2022/11/02 08:53:39;;;;;;;24.08;3.70;;;;;;;10.50;100.00;98620.72;4877833;29;20089;-92
2022/11/02 08:56:09;;;;;;;22.70;4.20;;;;;;;10.49;100.00;98600.63;4861589;29;20074;-91
2022/11/02 08:58:38;;;;;;;18.25;3.88;;;;;;;10.50;100.00;98589.88;4860682;29;20051;-90
2022/11/02 09:01:05;;;;;;;27.42;4.90;;;;;;;10.53;100.00;98583.38;4877489;29;20172;-91
2022/11/02 09:03:34;;;;;;;28.42;4.68;;;;;;;10.57;100.00;98581.19;4863001;29;20157;-91
2022/11/02 09:06:02;;;;;;;23.85;3.88;;;;;;;10.58;100.00;98551.91;4863464;29;20071;-95
2022/11/02 09:08:32;;;;;;;22.65;3.47;;;;;;;10.62;100.00;98534.66;4894275;29;20042;-92
2022/11/02 09:11:02;;;;;;;12.90;2.75;;;;;;;10.61;100.00;98522.47;4866719;29;20032;-93
2022/11/02 09:13:32;;;;;;;13.40;2.47;;;;;;;10.63;100.00;98532.84;4889210;29;20050;-92
2022/11/02 09:16:02;;;;;;;16.73;2.63;;;;;;;10.61;100.00;98516.38;4877276;29;20076;-93
2022/11/02 09:18:31;;;;;;;18.70;2.97;;;;;;;10.63;100.00;98506.44;4875668;29;20577;-92
2022/11/02 09:21:02;;;;;;;14.25;2.45;;;;;;;10.64;100.00;98506.25;4878412;29;20048;-91
2022/11/02 09:23:32;;;;;;;18.02;2.85;;;;;;;10.67;100.00;98474.16;4829733;29;20176;-94
2022/11/02 09:26:02;;;;;;;12.35;3.25;;;;;;;10.75;100.00;98488.22;4861885;29;20124;-92
2022/11/02 09:28:32;;;;;;;13.30;2.17;;;;;;;10.83;100.00;98489.91;4893138;29;20041;-94
2022/11/02 09:31:02;;;;;;;10.88;1.92;;;;;;;10.86;100.00;98461.22;4897147;29;20044;-94
2022/11/02 09:33:31;;;;;;;10.52;2.10;;;;;;;10.90;100.00;98448.44;4864928;29;20060;-94
2022/11/02 09:36:02;;;;;;;16.48;2.80;;;;;;;10.97;100.00;98446.69;4879904;29;20088;-94
2022/11/02 09:38:30;;;;;;;10.70;2.40;;;;;;;11.01;100.00;98425.94;4882031;29;20064;-93
2022/11/02 09:40:58;;;;;;;12.95;2.67;;;;;;;11.07;100.00;98413.75;4881128;29;20375;-92
2022/11/02 09:43:29;;;;;;;14.30;2.78;;;;;;;11.08;100.00;98389.78;4880378;29;20037;-94
2022/11/02 09:46:07;;;;;;;20.95;3.58;;;;;;;11.13;100.00;98345.03;4881198;29;20494;-93
2022/11/02 09:48:43;;;;;;;20.48;3.30;;;;;;;11.19;100.00;98351.34;4863313;29;20040;-93
2022/11/02 09:51:27;;;;;;;18.38;3.45;;;;;;;11.26;100.00;98354.03;4859491;29;20482;-93
2022/11/02 09:53:57;;;;;;;26.73;4.57;;;;;;;11.33;100.00;98338.97;4873375;29;20262;-93
2022/11/02 09:56:27;;;;;;;16.98;3.50;;;;;;;11.37;100.00;98355.25;4880363;29;20128;-92
2022/11/02 09:59:01;;;;;;;16.33;3.42;;;;;;;11.43;100.00;98313.94;4879368;29;20431;-94
2022/11/02 10:02:00;;;;;;;19.88;3.33;;;;;;;11.46;100.00;98324.94;4879615;29;20040;-94
2022/11/02 10:04:36;;;;;;;24.92;4.15;;;;;;;11.51;100.00;98298.69;4861536;29;20051;-95
2022/11/02 10:07:18;;;;;;;20.58;3.55;;;;;;;11.52;100.00;98270.41;4877650;29;20051;-96
2022/11/02 10:09:53;;;;;;;27.00;4.88;;;;;;;11.54;100.00;98295.66;4862624;29;20040;-95
2022/11/02 10:12:57;;;;;;;14.82;3.20;;;;;;;11.50;100.00;98251.25;4874359;29;20088;-94
2022/11/02 10:15:45;;;;;;;17.83;3.20;;;;;;;11.58;100.00;98253.69;4894820;29;20850;-95
2022/11/02 10:18:25;;;;;;;21.02;4.20;;;;;;;11.59;100.00;98244.75;4892221;29;20033;-95
2022/11/02 10:21:02;;;;;;;16.73;3.58;;;;;;;11.51;100.00;98248.44;4872142;29;20080;-95
2022/11/02 10:23:35;;;;;;;17.25;3.58;;;;;;;11.55;100.00;98243.53;4878145;29;20173;-95
2022/11/02 10:26:07;;;;;;;12.93;2.55;;;;;;;11.47;100.00;98236.63;4893785;29;20033;-94
2022/11/02 10:28:49;;;;;;;21.73;3.30;;;;;;;11.49;100.00;98239.88;4878020;29;20048;-94
2022/11/02 10:31:26;;;;;;;16.67;3.70;;;;;;;11.52;100.00;98215.66;4864220;29;20071;-94
2022/11/02 10:33:56;;;;;;;17.08;2.88;;;;;;;11.53;100.00;98225.22;4893361;29;20506;-94
2022/11/02 10:36:46;;;;;;;20.85;2.70;;;;;;;11.51;100.00;98239.69;4878890;29;20043;-94
2022/11/02 10:39:29;;;;;;;15.20;2.22;;;;;;;11.51;100.00;98234.38;4887937;29;20065;-94
2022/11/02 10:42:08;;;;;;;14.70;2.45;;;;;;;11.51;100.00;98227.28;4878440;29;20470;-94
2022/11/02 10:44:38;;;;;;;10.98;2.28;;;;;;;11.49;100.00;98217.91;4895672;29;20045;-93
2022/11/02 10:47:06;;;;;;;16.38;3.42;;;;;;;11.50;100.00;98214.22;4893135;29;20040;-93
2022/11/02 10:49:58;;;;;;;15.43;2.88;;;;;;;11.50;100.00;98195.72;4862742;29;20521;-91
2022/11/02 10:52:40;;;;;;;16.02;3.10;;;;;;;11.49;100.00;98160.53;4864050;29;20045;-93
2022/11/02 10:55:28;;;;;;;16.60;2.72;;;;;;;11.47;100.00;98167.84;4878046;29;20041;-91
2022/11/02 10:58:01;;;;;;;16.95;3.35;;;;;;;11.47;100.00;98167.03;4879699;29;20060;-92
2022/11/02 11:00:35;;;;;;;18.17;3.08;;;;;;;11.50;100.00;98153.38;4868491;29;20057;-93
2022/11/02 11:03:16;;;;;;;13.57;3.05;;;;;;;11.51;100.00;98161.13;4870262;29;20037;-91
2022/11/02 11:05:49;;;;;;;14.13;3.30;;;;;;;11.57;100.00;98153.38;4869358;29;20032;-92
2022/11/02 11:08:28;;;;;;;13.30;2.90;;;;;;;11.59;100.00;98128.34;4863762;29;20041;-93
2022/11/02 11:11:12;;;;;;;11.65;1.98;;;;;;;11.59;100.00;98111.66;4886709;29;20376;-94
2022/11/02 11:13:42;;;;;;;14.40;2.53;;;;;;;11.61;100.00;98249.84;4878655;29;20037;-92
2022/11/02 11:16:11;;;;;;;8.10;1.52;;;;;;;11.40;100.00;98276.28;4861312;29;20041;-92
2022/11/02 11:18:39;;;;;;;6.80;1.40;;;;;;;10.88;100.00;98266.28;4879234;29;20041;-92
2022/11/02 11:21:11;;;;;;;6.63;0.93;;;;;;;10.51;100.00;98244.66;4841172;29;20135;-91
2022/11/02 11:23:39;;;;;;;5.28;0.93;;;;;;;10.20;100.00;98252.03;4868569;29;20134;-90
2022/11/02 11:26:27;;;;;;;2.17;0.65;;;;;;;10.10;100.00;98233.06;4845231;29;20109;-91
2022/11/02 11:28:58;;;;;;;3.63;0.65;;;;;;;10.08;100.00;98230.63;4889843;29;20033;-90
2022/11/02 11:31:28;;;;;;;4.13;0.70;;;;;;;10.04;100.00;98264.53;4862662;29;20043;-93
2022/11/02 11:33:58;;;;;;;3.42;0.50;;;;;;;10.00;100.00;98271.19;4877713;29;20490;-93
2022/11/02 11:36:32;;;;;;;3.28;0.60;;;;;;;9.99;100.00;98250.28;4863097;29;20040;-92
2022/11/02 11:39:20;;;;;;;3.72;0.95;;;;;;;9.96;100.00;98255.94;4859172;29;20037;-92
2022/11/02 11:41:50;;;;;;;5.57;0.85;;;;;;;9.95;100.00;98228.78;4892939;29;20033;-93
2022/11/02 11:44:20;;;;;;;2.80;0.45;;;;;;;10.02;100.00;98229.59;4892800;29;20490;-92
2022/11/02 11:46:52;;;;;;;3.55;0.77;;;;;;;10.10;100.00;98222.50;4876270;29;20033;-94
2022/11/02 11:49:39;;;;;;;3.40;0.90;;;;;;;10.19;100.00;98194.97;4859179;29;20033;-93
2022/11/02 11:52:18;;;;;;;3.50;0.55;;;;;;;10.30;100.00;98180.38;4893161;29;20063;-92
2022/11/02 11:54:54;;;;;;;2.20;0.55;;;;;;;10.42;100.00;98196.44;4895893;29;20044;-96
2022/11/02 11:57:32;;;;;;;3.05;0.68;;;;;;;10.57;100.00;98211.34;4878464;29;20074;-96
2022/11/02 12:00:26;;;;;;;5.03;1.05;;;;;;;10.65;100.00;98206.69;4862112;29;20041;-96
2022/11/02 12:03:09;;;;;;;4.90;0.88;;;;;;;10.74;100.00;98206.50;4848574;29;20056;-96
2022/11/02 12:05:59;;;;;;;5.22;0.70;;;;;;;10.92;100.00;98201.44;4878227;29;20052;-96
2022/11/02 12:09:07;;;;;;;3.72;0.98;;;;;;;11.09;100.00;98192.28;4867834;29;20104;-95
2022/11/02 12:11:51;;;;;;;7.78;1.25;;;;;;;11.23;100.00;98182.50;4806343;29;20053;-96
2022/11/02 12:14:33;;;;;;;5.88;1.02;;;;;;;11.36;100.00;98190.44;4860619;29;20071;-96
2022/11/02 12:17:16;;;;;;;11.88;1.88;;;;;;;11.47;100.00;98186.34;4883939;29;20055;-96